EKCHEKYT

Guest
Details From EKCH - Kastrup
To EKYT - Aalborg
Flight Number -
Tags Generated
Created
Modified
Stats Distance 128 nm / 237 km
Max Altitude 0 ft / 0 m
Waypoints 2
Social Downloads 3
Likes 0
Share VATSIM

Download

Looking for another format? Having issues loading an existing format? Contact us
Advertisement - Login to hide

Notes

Generated

Route

EKCH EKYT

ID Type Via Altitude Latitude Longitude Leg Dist Tot Dist Heading (true) Name
O EKCH APT - 0 ft / 0 m 55.62761˚ 12.62973˚ - 0 nm - -
O EKYT APT - 0 ft / 0 m 57.09191˚ 9.83548˚ 127 nm 127 nm 315° / 312° -

Altitude Profile

Advertisement - Login to hide

EKCH

Details ICAO EKCH (CPH)
Name Kastrup
Region Denmark / Faroe Islands
Timezone Europe/Copenhagen (UTC+2.0)
Stats Elevation 17 ft / 5 m (AMSL)
Location 55.612915° 12.640961°
Runways 3
Magnetic Variation 3.788° E

METAR

EKCH 211120Z 14008KT CAVOK 18/06 Q1026 NOSIG

Decode

TAF

TAF EKCH 210512Z 2106/2206 09008KT CAVOK

Decode

Departure Runways

ID Width Length Bearing (true) Bearing (mag) Surface Threshold Offset Overrun Length
04L 148 ft / 45 m 11,848 ft / 3,611 m 41.15° 37.36° Asphalt 0 ft / 0 m 0 ft / 0 m
04R 148 ft / 45 m 10,814 ft / 3,296 m 41.15° 37.36° Asphalt 0 ft / 0 m 0 ft / 0 m
12 148 ft / 45 m 10,047 ft / 3,063 m 123.21° 119.42° Asphalt 2,313 ft / 705 m 0 ft / 0 m
22L 148 ft / 45 m 10,814 ft / 3,296 m 221.17° 217.38° Asphalt 0 ft / 0 m 0 ft / 0 m
22R 148 ft / 45 m 11,848 ft / 3,611 m 221.18° 217.39° Asphalt 2,018 ft / 615 m 0 ft / 0 m
30 148 ft / 45 m 10,047 ft / 3,063 m 303.25° 299.46° Asphalt 886 ft / 270 m 0 ft / 0 m

EKYT

Details ICAO EKYT (AAL)
Name Aalborg
Region Denmark / Faroe Islands
Timezone Europe/Copenhagen (UTC+2.0)
Stats Elevation 10 ft / 3 m (AMSL)
Location 57.094186° 9.855744°
Runways 2
Magnetic Variation 2.858° E

METAR

EKYT 211120Z AUTO 12012KT 9999NDV FEW190/// 19/08 Q1026

Decode

TAF

TAF EKYT 210824Z 2109/2206 12010KT 9999 BKN180 BECMG 2118/2121 09004KT

Decode

Destination Runways

ID Width Length Bearing (true) Bearing (mag) Surface Threshold Offset Overrun Length
08L 148 ft / 45 m 8,683 ft / 2,647 m 83.20° 80.34° Asphalt 0 ft / 0 m 896 ft / 273 m
08R 75 ft / 23 m 8,338 ft / 2,542 m 83.23° 80.37° Asphalt 0 ft / 0 m 492 ft / 150 m
26L 75 ft / 23 m 8,338 ft / 2,542 m 263.26° 260.40° Asphalt 0 ft / 0 m 492 ft / 150 m
26R 148 ft / 45 m 8,683 ft / 2,647 m 263.24° 260.38° Asphalt 0 ft / 0 m 728 ft / 222 m

Approach Navaids

Runway Type Ident Frequency Range Bearing (true) Bearing (mag) Slope Elevation
08L Localiser AE 109.90 MHz 18 nm / 33 km 83.27° 80.42° - 10 ft / 3 m (AMSL)
08L Glidescope AE 109.90 MHz 10 nm / 19 km 83.22° 80.36° 2.75° 10 ft / 3 m (AMSL)
08L DME AE 109.90 MHz 18 nm / 33 km - - - 19 ft / 6 m (AMSL)
26R Localiser YT 109.90 MHz 18 nm / 33 km 263.19° 260.34° - 10 ft / 3 m (AMSL)
26R Glidescope YT 109.90 MHz 10 nm / 19 km 263.22° 260.36° 2.75° 10 ft / 3 m (AMSL)
26R DME YT 109.90 MHz 18 nm / 33 km - - - 19 ft / 6 m (AMSL)

Popular Alternatives